Time;durP1;ratioP1;P1;durP2;ratioP2;P2;SDS_P1;SDS_P2;PMS_P1;PMS_P2;Temp;Humidity;BMP_temperature;BMP_pressure;BME280_temperature;BME280_humidity;BME280_pressure;Samples;Min_cycle;Max_cycle;Signal;HPM_P1;HPM_P2
2022/12/20 00:02:23;;;;;;;;;8.75;7.00;;;;;13.06;66.54;101082.34;5078184;27;45729;-63
2022/12/20 00:04:48;;;;;;;;;7.00;7.00;;;;;13.17;66.40;101104.25;5076222;28;45529;-63
2022/12/20 00:07:13;;;;;;;;;8.00;8.00;;;;;13.16;66.09;101099.81;5077822;27;45456;-63
2022/12/20 00:09:39;;;;;;;;;9.50;8.50;;;;;13.10;66.66;101092.91;5077692;27;45400;-63
2022/12/20 00:16:14;;;;;;;;;;;;;;;;;;;;;
2022/12/20 00:36:43;;;;;;;;;;;;;;;;;;;;;
2022/12/20 00:40:17;;;;;;;;;;;;;;;;;;;;;
2022/12/20 00:53:20;;;;;;;;;;;;;;;;;;;;;
2022/12/20 01:03:33;;;;;;;;;;;;;;;;;;;;;
2022/12/20 01:13:33;;;;;;;;;6.00;6.00;;;;;12.89;66.57;101032.94;5071961;28;45335;-63
2022/12/20 01:23:25;;;;;;;;;10.00;5.00;;;;;13.00;66.65;101063.81;5062963;28;45500;-63
2022/12/20 01:26:14;;;;;;;;;6.75;6.75;;;;;12.89;66.79;101040.97;5065760;28;45266;-63
2022/12/20 01:36:28;;;;;;;;;;;;;;;;;;;;;
2022/12/20 01:43:21;;;;;;;;;;;;;;;;;;;;;
2022/12/20 01:50:03;;;;;;;;;;;;;;;;;;;;;
2022/12/20 01:53:03;;;;;;;;;;;;;;;;;;;;;
2022/12/20 02:14:01;;;;;;;;;;;;;;;;;;;;;
2022/12/20 02:23:45;;;;;;;;;;;;;;;;;;;;;
2022/12/20 02:29:46;;;;;;;;;;;;;;;;;;;;;
2022/12/20 02:39:52;;;;;;;;;;;;;;;;;;;;;
2022/12/20 02:50:12;;;;;;;;;;;;;;;;;;;;;
2022/12/20 02:53:15;;;;;;;;;;;;;;;;;;;;;
2022/12/20 02:56:34;;;;;;;;;;;;;;;;;;;;;
2022/12/20 03:16:10;;;;;;;;;;;;;;;;;;;;;
2022/12/20 03:23:02;;;;;;;;;;;;;;;;;;;;;
2022/12/20 03:29:44;;;;;;;;;;;;;;;;;;;;;
2022/12/20 03:43:30;;;;;;;;;;;;;;;;;;;;;
2022/12/20 03:46:33;;;;;;;;;;;;;;;;;;;;;
2022/12/20 03:49:52;;;;;;;;;;;;;;;;;;;;;
2022/12/20 03:59:56;;;;;;;;;;;;;;;;;;;;;
2022/12/20 04:03:15;;;;;;;;;;;;;;;;;;;;;
2022/12/20 04:09:15;;;;;;;;;4.00;4.00;;;;;12.60;66.01;100938.47;5069025;28;45523;-62
2022/12/20 04:15:59;;;;;;;;;;;;;;;;;;;;;
2022/12/20 04:19:18;;;;;;;;;;;;;;;;;;;;;
2022/12/20 04:22:27;;;;;;;;;;;;;;;;;;;;;
2022/12/20 04:39:07;;;;;;;;;;;;;;;;;;;;;
2022/12/20 04:42:21;;;;;;;;;;;;;;;;;;;;;
2022/12/20 04:45:46;;;;;;;;;;;;;;;;;;;;;
2022/12/20 04:59:11;;;;;;;;;;;;;;;;;;;;;
2022/12/20 05:06:01;;;;;;;;;;;;;;;;;;;;;
2022/12/20 05:12:34;;;;;;;;;4.00;4.00;;;;;12.44;65.88;100880.22;5071443;28;45554;-62
2022/12/20 05:15:44;;;;;;;;;;;;;;;;;;;;;
2022/12/20 05:19:00;;;;;;;;;;;;;;;;;;;;;
2022/12/20 05:29:22;;;;;;;;;;;;;;;;;;;;;
2022/12/20 05:52:40;;;;;;;;;;;;;;;;;;;;;
2022/12/20 05:59:16;;;;;;;;;;;;;;;;;;;;;
2022/12/20 06:02:41;;;;;;;;;;;;;;;;;;;;;
2022/12/20 06:11:59;;;;;;;;;;;;;;;;;;;;;
2022/12/20 06:15:15;;;;;;;;;;;;;;;;;;;;;
2022/12/20 06:18:22;;;;;;;;;2.50;2.50;;;;;12.86;66.13;100896.41;5058105;28;72749;-62
2022/12/20 06:21:30;;;;;;;;;;;;;;;;;;;;;
2022/12/20 06:24:34;;;;;;;;;;;;;;;;;;;;;
2022/12/20 06:30:08;;;;;;;;;;;;;;;;;;;;;
2022/12/20 06:33:24;;;;;;;;;;;;;;;;;;;;;
2022/12/20 06:36:00;;;;;;;;;3.00;3.00;;;;;12.94;65.88;100902.34;5074683;28;72884;-62
2022/12/20 06:38:57;;;;;;;;;;;;;;;;;;;;;
2022/12/20 06:48:19;;;;;;;;;;;;;;;;;;;;;
2022/12/20 06:51:18;;;;;;;;;;;;;;;;;;;;;
2022/12/20 06:58:00;;;;;;;;;;;;;;;;;;;;;
2022/12/20 07:01:42;;;;;;;;;2.50;2.50;;;;;12.95;65.76;100881.78;5073475;27;72747;-63
2022/12/20 07:04:01;;;;;;;;;1.50;1.00;;;;;12.89;65.58;100864.13;5075721;27;45349;-61
2022/12/20 07:06:28;;;;;;;;;3.50;2.75;;;;;12.98;65.71;100885.22;5063867;28;45437;-61
2022/12/20 07:08:55;;;;;;;;;3.00;2.75;;;;;13.05;65.78;100891.19;5065267;28;45351;-61
2022/12/20 07:11:21;;;;;;;;;4.00;3.00;;;;;12.94;65.65;100878.22;5094523;27;45796;-60
2022/12/20 07:13:49;;;;;;;;;1.25;1.00;;;;;13.11;65.68;100903.47;5086949;27;45362;-61
2022/12/20 07:16:19;;;;;;;;;3.00;3.00;;;;;13.11;65.77;100900.78;5076432;28;45492;-61
2022/12/20 07:18:48;;;;;;;;;3.25;1.25;;;;;13.05;65.76;100891.19;5085817;27;45508;-61
2022/12/20 07:21:16;;;;;;;;;3.00;3.00;;;;;13.01;65.78;100875.31;5091749;27;45445;-61
2022/12/20 07:23:41;;;;;;;;;2.00;2.00;;;;;12.94;65.39;100867.50;5075854;27;46210;-61
2022/12/20 07:26:08;;;;;;;;;2.00;2.00;;;;;12.90;65.64;100862.34;5098858;27;45420;-61
2022/12/20 07:28:33;;;;;;;;;4.00;3.00;;;;;13.03;65.61;100870.75;5087828;27;45354;-61
2022/12/20 07:31:03;;;;;;;;;4.25;3.00;;;;;13.00;65.49;100870.88;5080692;27;45342;-61
2022/12/20 07:33:30;;;;;;;;;3.50;2.00;;;;;13.12;65.69;100891.81;5081870;27;45638;-61
2022/12/20 07:36:27;;;;;;;;;;;;;;;;;;;;;
2022/12/20 07:39:13;;;;;;;;;4.00;3.00;;;;;13.20;65.45;100889.72;5070312;28;67237;-61
2022/12/20 07:42:00;;;;;;;;;2.00;2.00;;;;;13.05;65.38;100875.13;5077803;28;45909;-61
2022/12/20 07:44:53;;;;;;;;;4.00;4.00;;;;;13.08;65.31;100874.09;5077677;28;46823;-62
2022/12/20 07:47:42;;;;;;;;;3.00;3.00;;;;;13.21;65.16;100895.94;5068286;27;45903;-63
2022/12/20 07:50:30;;;;;;;;;4.00;3.00;;;;;13.11;65.58;100892.75;5103613;27;45365;-62
2022/12/20 07:52:57;;;;;;;;;5.00;5.00;;;;;13.21;65.30;100920.06;5072214;28;45537;-61
2022/12/20 07:55:23;;;;;;;;;3.00;3.00;;;;;13.06;64.98;100878.66;5081122;27;46069;-61
2022/12/20 07:58:22;;;;;;;;;;;;;;;;;;;;;
2022/12/20 08:01:00;;;;;;;;;;;;;;;;;;;;;
2022/12/20 08:03:37;;;;;;;;;3.00;3.00;;;;;13.09;65.28;100889.28;5073791;28;71762;-63
2022/12/20 08:06:08;;;;;;;;;3.00;2.75;;;;;13.10;65.42;100881.16;5068745;27;46559;-62
2022/12/20 08:08:39;;;;;;;;;3.00;2.50;;;;;13.08;65.25;100874.09;5076560;27;45418;-62
2022/12/20 08:11:12;;;;;;;;;4.00;2.25;;;;;13.06;65.10;100876.84;5079595;28;45406;-62
2022/12/20 08:13:39;;;;;;;;;4.00;4.00;;;;;13.06;65.02;100868.81;5071971;27;45544;-62
2022/12/20 08:16:12;;;;;;;;;3.00;3.00;;;;;13.20;65.21;100897.75;5073408;27;45562;-62
2022/12/20 08:18:37;;;;;;;;;3.00;3.00;;;;;13.25;65.08;100902.94;5075803;28;45410;-62
2022/12/20 08:21:15;;;;;;;;;5.00;4.00;;;;;13.20;64.99;100891.50;5071073;28;45318;-61
2022/12/20 08:23:40;;;;;;;;;2.75;2.75;;;;;13.11;65.16;100882.03;5091431;27;45472;-62
2022/12/20 08:26:08;;;;;;;;;4.00;4.00;;;;;13.14;65.00;100896.19;5078607;28;46052;-61
2022/12/20 08:28:36;;;;;;;;;3.50;3.00;;;;;13.08;64.87;100868.75;5079678;27;45574;-62
2022/12/20 08:31:03;;;;;;;;;5.00;3.00;;;;;13.26;64.93;100894.78;5078854;28;45652;-62
2022/12/20 08:33:31;;;;;;;;;3.75;3.75;;;;;13.18;64.79;100879.97;5099747;27;45315;-62
2022/12/20 08:36:07;;;;;;;;;3.00;3.00;;;;;13.15;64.79;100881.00;5077813;28;47443;-62
2022/12/20 08:38:35;;;;;;;;;3.00;3.00;;;;;13.18;64.71;100883.53;5080238;28;45361;-61
2022/12/20 08:41:09;;;;;;;;;3.00;2.00;;;;;13.14;64.58;100872.06;5068337;27;45533;-61
2022/12/20 08:43:36;;;;;;;;;6.00;4.00;;;;;13.19;64.61;100879.03;5067351;27;45517;-62
2022/12/20 08:46:02;;;;;;;;;4.00;2.50;;;;;13.19;64.83;100879.03;5076273;27;46032;-62
2022/12/20 08:48:28;;;;;;;;;6.50;6.00;;;;;13.32;64.82;100893.72;5078439;28;45488;-62
2022/12/20 08:50:57;;;;;;;;;5.50;4.25;;;;;13.16;64.77;100870.22;5073991;27;45518;-62
2022/12/20 08:53:26;;;;;;;;;3.00;3.00;;;;;13.27;64.51;100899.22;5075410;28;45518;-61
2022/12/20 08:55:52;;;;;;;;;3.00;3.00;;;;;13.32;64.88;100899.09;5068267;27;48109;-62
2022/12/20 08:58:19;;;;;;;;;4.75;3.25;;;;;13.08;64.73;100850.00;5079006;27;45604;-62
2022/12/20 09:00:47;;;;;;;;;5.00;3.00;;;;;13.17;64.50;100876.44;5078333;28;45755;-61
2022/12/20 09:03:15;;;;;;;;;3.75;3.00;;;;;13.11;64.46;100872.22;5067566;28;45495;-61
2022/12/20 09:05:47;;;;;;;;;4.00;4.00;;;;;13.19;64.88;100881.72;5077033;28;46077;-62
2022/12/20 09:08:16;;;;;;;;;5.50;2.50;;;;;13.32;65.09;100896.41;5071283;28;45707;-62
2022/12/20 09:10:42;;;;;;;;;2.50;2.50;;;;;13.33;64.85;100911.53;5081884;27;45502;-62
2022/12/20 09:13:10;;;;;;;;;3.75;3.75;;;;;13.21;65.17;100891.44;5079564;27;45528;-61
2022/12/20 09:15:41;;;;;;;;;5.75;5.00;;;;;13.11;65.10;100874.00;5075824;27;45560;-62
2022/12/20 09:18:12;;;;;;;;;5.00;3.00;;;;;13.19;65.36;100890.63;5080153;27;45366;-61
2022/12/20 09:20:45;;;;;;;;;5.50;4.25;;;;;13.24;65.56;100891.31;5076114;27;45395;-61
2022/12/20 09:23:11;;;;;;;;;5.00;5.00;;;;;13.11;65.68;100872.22;5078522;28;45349;-62
2022/12/20 09:25:36;;;;;;;;;4.00;4.00;;;;;13.34;65.61;100897.22;5090145;27;47241;-62
2022/12/20 09:28:32;;;;;;;;;5.00;4.75;;;;;13.41;65.78;100922.81;5075805;27;45526;-62
2022/12/20 09:30:59;;;;;;;;;3.00;3.00;;;;;13.24;66.60;100899.34;5091900;27;45533;-61
2022/12/20 09:33:36;;;;;;;;;;;;;;;;;;;;;
2022/12/20 09:36:13;;;;;;;;;;;;;;;;;;;;;
2022/12/20 09:38:57;;;;;;;;;;;;;;;;;;;;;
2022/12/20 09:41:41;;;;;;;;;6.00;5.00;;;;;13.30;67.38;100912.53;5077998;28;69234;-62
2022/12/20 09:44:13;;;;;;;;;5.00;5.00;;;;;13.37;67.63;100925.72;5068791;27;45595;-61
2022/12/20 09:46:51;;;;;;;;;5.75;4.00;;;;;13.16;67.76;100886.28;5088978;27;46807;-62
2022/12/20 09:49:18;;;;;;;;;1.50;1.50;;;;;13.19;68.00;100898.69;5077761;28;46026;-62
2022/12/20 09:52:00;;;;;;;;;4.00;3.75;;;;;13.29;68.40;100915.25;5078193;28;45561;-62
2022/12/20 09:54:38;;;;;;;;;5.50;4.00;;;;;13.25;69.02;100917.19;5077362;28;45848;-62
2022/12/20 09:57:20;;;;;;;;;;;;;;;;;;;;;
2022/12/20 09:59:57;;;;;;;;;3.75;2.00;;;;;13.21;69.05;100895.94;5071945;27;72798;-62
2022/12/20 10:02:26;;;;;;;;;4.00;4.00;;;;;13.02;69.31;100867.19;5074073;28;46388;-62
2022/12/20 10:04:53;;;;;;;;;3.50;3.50;;;;;13.08;69.63;100876.78;5069543;28;45764;-62
2022/12/20 10:07:40;;;;;;;;;5.00;5.00;;;;;13.28;69.74;100902.78;5077142;27;47952;-62
2022/12/20 10:10:36;;;;;;;;;6.25;5.00;;;;;13.28;69.87;100898.31;5077508;28;45390;-62
2022/12/20 10:13:24;;;;;;;;;4.50;3.75;;;;;13.28;70.11;100890.28;5074400;28;45429;-62
2022/12/20 10:16:20;;;;;;;;;4.50;4.50;;;;;13.22;70.07;100887.84;5076927;28;45409;-62
2022/12/20 10:19:15;;;;;;;;;4.00;4.00;;;;;13.20;70.75;100888.81;5079317;27;47207;-63
2022/12/20 10:22:02;;;;;;;;;5.25;4.25;;;;;13.18;70.39;100891.59;5069002;28;45545;-62
2022/12/20 10:24:35;;;;;;;;;7.00;5.50;;;;;13.03;70.49;100865.38;5068025;28;45342;-62
2022/12/20 10:27:24;;;;;;;;;5.25;3.75;;;;;13.25;70.30;100910.97;5090527;27;45513;-62
2022/12/20 10:29:51;;;;;;;;;4.00;4.00;;;;;13.20;70.62;100888.81;5070547;28;47939;-62
2022/12/20 10:32:24;;;;;;;;;7.25;7.25;;;;;13.21;70.84;100893.25;5071999;28;45459;-62
2022/12/20 10:35:14;;;;;;;;;4.75;4.75;;;;;13.24;71.08;100894.00;5076458;27;45457;-62
2022/12/20 10:38:12;;;;;;;;;5.25;5.25;;;;;13.24;71.02;100888.63;5075619;27;45631;-62
2022/12/20 10:40:44;;;;;;;;;5.00;4.00;;;;;13.02;71.06;100852.94;5074639;28;47940;-62
2022/12/20 10:43:53;;;;;;;;;7.00;4.25;;;;;13.02;71.32;100852.94;5078231;28;45344;-62
2022/12/20 10:46:22;;;;;;;;;5.00;5.00;;;;;13.06;71.59;100851.88;5071037;27;45594;-62
2022/12/20 10:48:50;;;;;;;;;6.00;5.00;;;;;13.19;71.60;100887.94;5076857;27;45440;-62
2022/12/20 10:51:27;;;;;;;;;8.00;6.75;;;;;13.13;71.53;100874.78;5076343;27;46940;-61
2022/12/20 10:54:15;;;;;;;;;7.50;6.00;;;;;13.20;71.47;100889.72;5077805;27;45350;-62
2022/12/20 10:56:55;;;;;;;;;8.00;6.75;;;;;12.89;71.24;100836.47;5067823;27;45612;-62
2022/12/20 10:59:37;;;;;;;;;5.75;5.50;;;;;13.12;71.45;100878.44;5072446;27;45658;-62
2022/12/20 11:02:33;;;;;;;;;8.50;6.00;;;;;13.18;71.77;100888.00;5068696;27;46743;-62
2022/12/20 11:05:02;;;;;;;;;5.00;4.00;;;;;13.09;71.98;100882.09;5065630;27;45835;-62
2022/12/20 11:07:31;;;;;;;;;9.00;7.00;;;;;12.85;71.75;100840.25;5063832;28;45440;-62
2022/12/20 11:10:22;;;;;;;;;6.00;5.50;;;;;13.04;71.73;100873.38;5075989;27;45579;-62
2022/12/20 11:13:02;;;;;;;;;5.75;5.75;;;;;12.92;71.95;100842.59;5075982;27;45434;-62
2022/12/20 11:15:33;;;;;;;;;7.00;7.00;;;;;13.03;72.01;100866.28;5077963;27;45635;-62
2022/12/20 11:18:23;;;;;;;;;6.50;6.00;;;;;12.72;72.41;100815.75;5067111;28;45343;-61
2022/12/20 11:21:09;;;;;;;;;6.00;5.00;;;;;13.02;72.18;100869.03;5067178;28;45480;-62
2022/12/20 11:23:47;;;;;;;;;6.00;5.00;;;;;12.83;72.42;100840.28;5076266;27;46505;-62
2022/12/20 11:26:34;;;;;;;;;5.00;5.00;;;;;13.00;72.23;100861.03;5074957;28;45410;-62
2022/12/20 11:29:24;;;;;;;;;7.25;5.00;;;;;13.00;72.23;100866.41;5065672;27;45759;-62
2022/12/20 11:32:28;;;;;;;;;;;;;;;;;;;;;
2022/12/20 11:35:06;;;;;;;;;5.50;5.50;;;;;12.96;72.31;100860.31;5063510;28;75300;-62
2022/12/20 11:37:53;;;;;;;;;5.50;4.00;;;;;12.88;72.30;100850.81;5076966;28;45330;-62
2022/12/20 11:40:38;;;;;;;;;4.25;4.25;;;;;12.79;72.44;100849.38;5075068;27;45509;-62
2022/12/20 11:43:13;;;;;;;;;6.00;5.50;;;;;12.91;72.35;100853.38;5054402;27;46155;-62
2022/12/20 11:46:03;;;;;;;;;4.75;4.00;;;;;12.88;72.55;100842.75;5049209;27;46452;-62
2022/12/20 11:48:55;;;;;;;;;6.50;5.50;;;;;12.92;72.54;100847.09;5032579;27;46171;-63
2022/12/20 11:51:40;;;;;;;;;7.00;6.25;;;;;12.72;72.38;100805.03;5038603;27;46320;-63
2022/12/20 11:54:14;;;;;;;;;7.75;5.50;;;;;12.88;72.67;100819.53;5034509;27;45884;-62
2022/12/20 11:56:56;;;;;;;;;;;;;;;;;;;;;
2022/12/20 11:59:45;;;;;;;;;6.00;6.00;;;;;12.91;72.52;100808.72;5035464;27;72836;-62
2022/12/20 12:02:17;;;;;;;;;4.50;4.25;;;;;12.92;72.35;100804.22;5066053;27;45838;-62
2022/12/20 12:04:54;;;;;;;;;8.00;7.00;;;;;12.92;72.78;100807.75;5099153;27;46402;-62
2022/12/20 12:07:28;;;;;;;;;8.25;8.25;;;;;12.89;72.14;100785.59;5075272;27;46683;-62
2022/12/20 12:10:14;;;;;;;;;8.00;6.00;;;;;12.95;72.66;100796.06;5070433;27;45419;-62
2022/12/20 12:12:44;;;;;;;;;7.25;6.00;;;;;12.92;72.26;100791.69;5045290;27;46210;-62
2022/12/20 12:15:35;;;;;;;;;7.00;5.50;;;;;12.97;72.56;100791.50;5061832;27;45602;-62
2022/12/20 12:18:09;;;;;;;;;5.75;4.25;;;;;12.83;72.72;100767.97;5075600;28;47761;-62
2022/12/20 12:20:54;;;;;;;;;5.00;4.75;;;;;12.90;72.41;100780.16;5065489;27;45511;-62
2022/12/20 12:23:29;;;;;;;;;8.00;6.00;;;;;12.83;72.85;100767.97;5076087;27;45682;-61
2022/12/20 12:26:00;;;;;;;;;7.50;5.00;;;;;12.94;72.71;100786.25;5079234;27;45683;-61
2022/12/20 12:28:27;;;;;;;;;8.75;6.75;;;;;12.90;72.63;100765.91;5075443;27;46404;-62
2022/12/20 12:31:19;;;;;;;;;8.00;7.00;;;;;12.63;72.91;100725.03;5080832;27;45496;-61
2022/12/20 12:33:57;;;;;;;;;8.00;7.25;;;;;12.82;72.93;100755.50;5078259;27;45985;-61
2022/12/20 12:37:00;;;;;;;;;6.25;5.25;;;;;12.69;72.95;100716.75;5067771;27;45386;-62
2022/12/20 12:39:37;;;;;;;;;5.25;4.50;;;;;12.93;73.18;100749.66;5084947;27;45572;-62
2022/12/20 12:42:05;;;;;;;;;8.00;7.00;;;;;12.95;73.11;100743.34;5071491;28;45871;-63
2022/12/20 12:44:50;;;;;;;;;;;;;;;;;;;;;
2022/12/20 12:47:29;;;;;;;;;6.25;4.50;;;;;12.93;73.10;100741.63;5061885;28;73256;-63
2022/12/20 12:49:55;;;;;;;;;9.50;8.25;;;;;12.83;73.13;100725.09;5075819;27;45439;-63
2022/12/20 12:52:44;;;;;;;;;7.00;5.00;;;;;12.98;73.61;100750.38;5070653;28;45554;-62
2022/12/20 12:55:37;;;;;;;;;7.00;7.00;;;;;13.05;73.22;100764.38;5073283;27;46484;-61
2022/12/20 12:58:34;;;;;;;;;7.50;6.00;;;;;13.08;73.35;100753.50;5068743;27;45394;-61
2022/12/20 13:01:11;;;;;;;;;8.75;8.25;;;;;12.92;73.63;100727.38;5046558;28;45515;-61
2022/12/20 13:03:52;;;;;;;;;5.25;5.25;;;;;13.07;73.62;100746.44;5087291;27;45957;-61
2022/12/20 13:06:29;;;;;;;;;6.50;6.25;;;;;13.08;73.54;100742.78;5091375;27;45609;-61
2022/12/20 13:08:58;;;;;;;;;9.00;6.50;;;;;13.08;73.86;100745.47;5074116;27;45839;-61
2022/12/20 13:11:31;;;;;;;;;6.25;5.00;;;;;12.86;73.56;100708.00;5086982;27;45535;-61
2022/12/20 13:14:26;;;;;;;;;6.25;6.25;;;;;13.09;73.77;100750.78;5069085;27;45661;-61
2022/12/20 13:17:06;;;;;;;;;5.75;5.00;;;;;13.09;74.13;100750.78;5074095;28;45427;-63
2022/12/20 13:19:35;;;;;;;;;3.25;3.25;;;;;13.05;74.32;100751.00;5090731;27;45576;-64
2022/12/20 13:22:15;;;;;;;;;6.75;6.50;;;;;13.07;74.32;100741.94;5068825;27;46217;-63
2022/12/20 13:25:02;;;;;;;;;5.00;5.00;;;;;13.06;74.14;100736.63;5072104;27;45402;-60
2022/12/20 13:27:39;;;;;;;;;7.75;5.50;;;;;12.96;73.94;100718.28;5071860;28;45539;-62
2022/12/20 13:30:16;;;;;;;;;4.75;4.75;;;;;13.13;73.99;100744.38;5075234;27;47031;-62
2022/12/20 13:32:47;;;;;;;;;5.00;5.00;;;;;13.15;74.43;100738.94;5085035;27;46371;-62
2022/12/20 13:35:27;;;;;;;;;6.25;5.00;;;;;13.13;74.52;100724.72;5077119;27;45468;-62
2022/12/20 13:37:57;;;;;;;;;7.25;6.00;;;;;13.13;74.45;100719.34;5072221;27;45389;-62
2022/12/20 13:40:43;;;;;;;;;5.50;5.50;;;;;13.13;74.19;100716.66;5071556;27;45826;-62
2022/12/20 13:43:17;;;;;;;;;5.75;4.50;;;;;13.18;74.33;100720.06;5076220;27;45868;-62
2022/12/20 13:45:51;;;;;;;;;9.00;7.25;;;;;13.04;74.28;100701.88;5088434;27;45592;-62
2022/12/20 13:48:29;;;;;;;;;7.00;6.75;;;;;13.14;74.28;100716.59;5077517;27;45665;-62
2022/12/20 13:50:55;;;;;;;;;4.00;4.00;;;;;13.22;74.30;100718.09;5075647;27;45488;-62
2022/12/20 13:53:29;;;;;;;;;5.75;5.75;;;;;13.06;74.30;100675.88;5071843;27;48213;-62
2022/12/20 13:55:55;;;;;;;;;6.25;6.25;;;;;13.08;74.42;100684.72;5089463;27;45472;-62
2022/12/20 13:58:33;;;;;;;;;6.75;4.00;;;;;13.23;74.30;100710.00;5075339;28;45463;-62
2022/12/20 14:01:10;;;;;;;;;6.00;6.00;;;;;13.10;74.39;100690.88;5073306;27;46377;-62
2022/12/20 14:03:51;;;;;;;;;;;;;;;;;;;;;
2022/12/20 14:06:22;;;;;;;;;7.50;6.50;;;;;13.09;74.11;100674.88;5076156;28;72032;-62
2022/12/20 14:08:50;;;;;;;;;10.00;7.00;;;;;13.12;74.17;100686.31;5066499;27;45380;-62
2022/12/20 14:11:26;;;;;;;;;8.00;6.25;;;;;13.29;74.12;100706.16;5072196;27;46399;-62
2022/12/20 14:13:54;;;;;;;;;7.00;7.00;;;;;13.24;73.99;100690.28;5072616;28;45470;-62
2022/12/20 14:16:40;;;;;;;;;;;;;;;;;;;;;
2022/12/20 14:19:12;;;;;;;;;29.50;25.00;;;;;13.34;74.19;100704.19;5071496;28;68899;-62
2022/12/20 14:21:45;;;;;;;;;8.75;8.00;;;;;13.09;73.82;100646.25;5076490;27;45430;-62
2022/12/20 14:24:18;;;;;;;;;10.00;5.75;;;;;13.29;73.97;100682.03;5061761;27;45479;-62
2022/12/20 14:26:49;;;;;;;;;5.75;5.25;;;;;13.22;74.00;100675.22;5085073;27;45403;-62
2022/12/20 14:29:18;;;;;;;;;6.25;6.25;;;;;13.23;73.97;100672.47;5078645;27;45584;-62
2022/12/20 14:31:47;;;;;;;;;6.75;6.00;;;;;13.32;74.18;100690.84;5086400;27;45492;-62
2022/12/20 14:34:33;;;;;;;;;;;;;;;;;;;;;
2022/12/20 14:37:35;;;;;;;;;5.75;4.75;;;;;13.35;74.71;100689.84;5075290;28;73047;-62
2022/12/20 14:40:06;;;;;;;;;6.00;6.00;;;;;13.36;74.44;100688.03;5101303;27;45479;-61
2022/12/20 14:42:34;;;;;;;;;3.75;3.75;;;;;13.11;74.55;100643.50;5087210;27;45503;-62
2022/12/20 14:45:09;;;;;;;;;3.50;2.25;;;;;13.38;74.79;100684.34;5079439;27;45568;-62
2022/12/20 14:47:36;;;;;;;;;8.00;7.25;;;;;13.08;74.87;100635.59;5082516;27;45769;-62
2022/12/20 14:50:17;;;;;;;;;9.00;5.00;;;;;13.39;74.76;100674.50;5078388;28;45476;-62
2022/12/20 14:52:45;;;;;;;;;4.50;4.50;;;;;13.24;75.09;100650.06;5071040;28;45516;-62
2022/12/20 14:55:29;;;;;;;;;5.00;5.00;;;;;13.36;75.11;100663.91;5075482;27;45622;-61
2022/12/20 14:58:05;;;;;;;;;7.50;6.00;;;;;13.32;75.23;100658.66;5076713;28;45454;-62
2022/12/20 15:00:32;;;;;;;;;4.50;4.00;;;;;13.30;75.04;100646.25;5076548;28;45558;-61
2022/12/20 15:03:16;;;;;;;;;6.50;6.50;;;;;13.40;75.24;100671.75;5075739;27;45740;-62
2022/12/20 15:06:01;;;;;;;;;5.00;4.50;;;;;13.16;75.38;100639.72;5076277;28;45588;-62
2022/12/20 15:08:38;;;;;;;;;7.00;4.50;;;;;13.28;75.50;100653.47;5072688;27;45742;-62
2022/12/20 15:11:07;;;;;;;;;8.00;5.75;;;;;13.39;75.28;100659.25;5075706;27;45343;-62
2022/12/20 15:13:41;;;;;;;;;4.75;4.75;;;;;13.23;75.43;100634.03;5066906;27;46018;-62
2022/12/20 15:16:36;;;;;;;;;7.00;7.00;;;;;13.18;75.54;100626.25;5077456;27;47267;-62
2022/12/20 15:19:09;;;;;;;;;6.00;5.50;;;;;13.12;75.65;100613.09;5091543;27;45654;-62
2022/12/20 15:21:39;;;;;;;;;8.00;7.25;;;;;13.37;75.86;100653.09;5050825;28;45397;-62
2022/12/20 15:24:15;;;;;;;;;5.25;5.25;;;;;13.39;76.07;100659.25;5071960;27;45480;-62
2022/12/20 15:26:41;;;;;;;;;7.75;7.00;;;;;13.40;75.95;100657.44;5076887;28;46051;-62
2022/12/20 15:29:14;;;;;;;;;7.75;6.50;;;;;13.34;76.07;100642.50;5074902;28;45958;-62
2022/12/20 15:31:39;;;;;;;;;7.50;6.50;;;;;13.27;75.56;100635.66;5062709;27;45351;-62
2022/12/20 15:34:24;;;;;;;;;6.50;6.00;;;;;13.38;75.91;100651.28;5076702;27;45426;-61
2022/12/20 15:36:49;;;;;;;;;9.50;7.00;;;;;13.34;75.58;100648.75;5076408;28;46103;-62
2022/12/20 15:39:15;;;;;;;;;9.00;7.00;;;;;13.37;75.90;100649.56;5075605;28;45596;-62
2022/12/20 15:41:44;;;;;;;;;8.00;7.00;;;;;13.24;76.24;100623.25;5076588;28;45406;-62
2022/12/20 15:44:16;;;;;;;;;7.25;7.25;;;;;13.23;75.80;100626.91;5075329;28;45488;-62
2022/12/20 15:46:44;;;;;;;;;7.25;7.25;;;;;13.34;76.11;100643.38;5066820;28;48202;-62
2022/12/20 15:49:28;;;;;;;;;7.50;6.75;;;;;13.32;76.07;100647.09;5072575;28;45331;-62
2022/12/20 15:51:54;;;;;;;;;7.25;7.25;;;;;13.22;76.12;100624.28;5065894;27;45424;-62
2022/12/20 15:54:26;;;;;;;;;7.00;7.00;;;;;13.36;76.38;100651.34;5078759;28;45634;-62
2022/12/20 15:56:53;;;;;;;;;8.25;7.25;;;;;13.17;76.33;100616.44;5078265;27;45555;-62
2022/12/20 15:59:23;;;;;;;;;9.75;8.50;;;;;13.23;76.51;100632.25;5072832;27;45598;-61
2022/12/20 16:01:49;;;;;;;;;10.50;8.75;;;;;13.28;76.56;100648.09;5082055;27;45454;-62
2022/12/20 16:04:17;;;;;;;;;10.00;7.00;;;;;13.23;76.71;100642.09;5090153;27;46342;-62
2022/12/20 16:06:47;;;;;;;;;7.00;7.00;;;;;13.27;76.15;100647.25;5073539;28;48020;-62
2022/12/20 16:09:14;;;;;;;;;8.00;7.00;;;;;13.39;76.50;100655.72;5071335;27;45865;-62
2022/12/20 16:11:41;;;;;;;;;8.00;8.00;;;;;13.31;76.52;100643.50;5089403;27;45452;-62
2022/12/20 16:14:12;;;;;;;;;9.75;8.00;;;;;13.12;76.66;100608.59;5077084;27;45507;-62
2022/12/20 16:16:38;;;;;;;;;7.00;6.25;;;;;13.35;76.53;100655.00;5074542;27;47312;-61
2022/12/20 16:19:03;;;;;;;;;7.75;7.25;;;;;13.17;76.59;100621.81;5076719;27;45655;-62
2022/12/20 16:21:34;;;;;;;;;5.25;5.25;;;;;13.37;76.44;100653.09;5078933;28;45560;-62
2022/12/20 16:24:01;;;;;;;;;6.50;6.50;;;;;13.19;76.86;100627.09;5065608;28;45492;-62
2022/12/20 16:26:29;;;;;;;;;8.00;8.00;;;;;13.34;77.12;100661.28;5067371;27;47485;-63
2022/12/20 16:28:57;;;;;;;;;8.50;8.50;;;;;13.21;77.10;100628.75;5072461;27;45619;-62
2022/12/20 16:31:34;;;;;;;;;7.00;7.00;;;;;13.26;77.33;100637.44;5079459;28;45504;-62
2022/12/20 16:34:04;;;;;;;;;7.00;7.00;;;;;13.13;77.24;100628.22;5078797;28;45464;-62
2022/12/20 16:36:30;;;;;;;;;6.00;6.00;;;;;13.14;77.29;100625.47;5079102;27;45602;-62
2022/12/20 16:38:55;;;;;;;;;7.50;6.75;;;;;13.19;77.20;100624.41;5089536;27;45689;-62
2022/12/20 16:41:29;;;;;;;;;7.00;6.00;;;;;13.03;77.26;100611.72;5070944;27;45358;-62
2022/12/20 16:44:03;;;;;;;;;7.75;7.75;;;;;13.19;77.28;100630.63;5075717;27;45492;-62
2022/12/20 16:46:32;;;;;;;;;10.00;8.00;;;;;13.09;77.36;100605.19;5079834;28;45895;-62
2022/12/20 16:49:00;;;;;;;;;9.50;8.00;;;;;13.36;77.50;100637.94;5071927;28;45540;-62
2022/12/20 16:51:31;;;;;;;;;6.50;5.75;;;;;13.22;77.19;100603.69;5103477;27;45698;-62
2022/12/20 16:54:06;;;;;;;;;7.00;7.00;;;;;13.20;77.36;100602.91;5075082;28;45545;-63
2022/12/20 16:56:32;;;;;;;;;8.25;8.25;;;;;13.31;77.11;100618.50;5083393;27;45966;-62
2022/12/20 16:58:58;;;;;;;;;7.25;7.25;;;;;13.17;77.51;100605.72;5072522;27;45544;-62
2022/12/20 17:01:44;;;;;;;;;8.75;8.75;;;;;13.41;77.47;100654.69;5078808;28;45490;-62
2022/12/20 17:04:14;;;;;;;;;7.50;7.50;;;;;13.37;77.48;100636.16;5079045;28;45331;-63
2022/12/20 17:06:43;;;;;;;;;9.50;8.50;;;;;13.24;77.47;100617.03;5079236;27;46577;-63
2022/12/20 17:09:09;;;;;;;;;7.25;7.25;;;;;13.22;77.44;100618.94;5077989;27;45703;-62
2022/12/20 17:11:35;;;;;;;;;5.50;4.00;;;;;13.21;77.60;100626.06;5078751;27;45454;-62
2022/12/20 17:14:00;;;;;;;;;8.00;7.25;;;;;13.33;77.54;100656.84;5079046;28;45362;-62
2022/12/20 17:16:27;;;;;;;;;11.00;11.00;;;;;13.27;77.57;100633.00;5078842;27;46174;-62
2022/12/20 17:18:54;;;;;;;;;8.75;8.00;;;;;13.25;77.88;100634.88;5079895;27;45359;-62
2022/12/20 17:21:25;;;;;;;;;10.50;10.50;;;;;13.36;77.48;100654.03;5079151;27;45515;-62
2022/12/20 17:23:51;;;;;;;;;10.25;10.25;;;;;13.35;77.28;100655.00;5068955;28;46003;-62
2022/12/20 17:26:22;;;;;;;;;16.25;13.75;;;;;13.42;77.58;100677.03;5059790;28;47632;-62
2022/12/20 17:28:59;;;;;;;;;14.50;13.50;;;;;13.40;77.27;100676.22;5075440;28;45330;-62
2022/12/20 17:31:29;;;;;;;;;10.25;10.25;;;;;13.24;77.23;100655.44;5087438;27;45500;-62
2022/12/20 17:33:59;;;;;;;;;9.25;9.25;;;;;13.39;77.37;100675.34;5065831;28;45650;-62
2022/12/20 17:36:25;;;;;;;;;13.75;13.25;;;;;13.30;77.61;100656.97;5070691;27;47105;-62
2022/12/20 17:39:00;;;;;;;;;;;;;;;;;;;;;
2022/12/20 17:41:41;;;;;;;;;;;;;;;;;;;;;
2022/12/20 17:44:16;;;;;;;;;14.25;12.50;;;;;13.45;77.45;100687.63;5077266;27;71183;-62
2022/12/20 17:46:41;;;;;;;;;13.75;13.00;;;;;13.37;77.50;100671.00;5076729;27;47939;-62
2022/12/20 17:49:07;;;;;;;;;14.75;11.50;;;;;13.24;77.44;100658.09;5088901;27;45477;-62
2022/12/20 17:51:32;;;;;;;;;14.75;14.75;;;;;13.25;77.25;100656.31;5068834;27;45653;-62
2022/12/20 17:54:02;;;;;;;;;9.25;8.75;;;;;13.30;77.45;100665.88;5074582;28;45405;-62